Time;durP1;ratioP1;P1;durP2;ratioP2;P2;SDS_P1;SDS_P2;PMS_P1;PMS_P2;Temp;Humidity;BMP_temperature;BMP_pressure;BME280_temperature;BME280_humidity;BME280_pressure;Samples;Min_cycle;Max_cycle;Signal;HPM_P1;HPM_P2
2021/03/15 00:00:11;;;;;;;19.73;4.07;;;4.80;89.80;;;;;;5055484;28;20197;-86
2021/03/15 00:02:40;;;;;;;26.13;4.87;;;4.80;90.00;;;;;;5055156;28;20205;-87
2021/03/15 00:05:14;;;;;;;33.67;6.17;;;4.90;90.10;;;;;;5055577;28;20179;-86
2021/03/15 00:07:41;;;;;;;29.13;5.37;;;4.90;89.80;;;;;;5073202;28;20210;-86
2021/03/15 00:10:12;;;;;;;29.53;6.20;;;4.90;90.30;;;;;;5055254;28;20175;-86
2021/03/15 00:12:42;;;;;;;31.83;6.43;;;4.80;90.60;;;;;;5055167;28;20584;-85
2021/03/15 00:15:15;;;;;;;27.47;5.13;;;4.80;90.60;;;;;;5055243;28;20269;-85
2021/03/15 00:17:45;;;;;;;22.53;5.17;;;4.80;90.60;;;;;;5055140;28;20551;-85
2021/03/15 00:20:17;;;;;;;27.97;4.53;;;4.90;90.60;;;;;;5055117;28;20168;-86
2021/03/15 00:22:53;;;;;;;31.73;5.40;;;4.80;90.50;;;;;;5073094;28;20191;-85
2021/03/15 00:25:26;;;;;;;25.20;5.07;;;4.90;90.00;;;;;;5055053;28;20198;-85
2021/03/15 00:28:00;;;;;;;12.60;3.67;;;4.90;89.60;;;;;;5072884;28;20642;-85
2021/03/15 00:30:31;;;;;;;20.83;3.57;;;4.90;89.00;;;;;;5072999;28;20170;-85
2021/03/15 00:33:01;;;;;;;15.83;4.57;;;4.90;88.90;;;;;;5072901;28;20183;-86
2021/03/15 00:35:28;;;;;;;15.70;3.43;;;4.80;88.60;;;;;;5073030;28;20176;-86
2021/03/15 00:37:55;;;;;;;13.27;3.03;;;4.80;88.50;;;;;;5055348;28;20185;-86
2021/03/15 00:40:26;;;;;;;14.23;3.47;;;4.80;88.40;;;;;;5055073;28;20568;-86
2021/03/15 00:43:00;;;;;;;12.13;2.77;;;4.80;88.20;;;;;;5073162;28;20260;-86
2021/03/15 00:45:34;;;;;;;11.33;2.50;;;4.80;88.30;;;;;;5055749;28;20202;-86
2021/03/15 00:48:07;;;;;;;12.43;2.57;;;4.70;88.30;;;;;;5054818;28;20206;-86
2021/03/15 00:50:42;;;;;;;13.50;3.40;;;4.60;88.70;;;;;;5072903;28;20172;-86
2021/03/15 00:53:19;;;;;;;15.77;3.67;;;4.60;88.70;;;;;;5054854;28;20200;-86
2021/03/15 00:55:54;;;;;;;10.63;2.63;;;4.60;88.90;;;;;;5054900;28;20171;-87
2021/03/15 00:58:27;;;;;;;13.50;5.40;;;4.60;89.20;;;;;;5055414;28;20177;-86
2021/03/15 01:01:00;;;;;;;9.53;2.00;;;4.60;89.20;;;;;;5058674;28;20198;-87
2021/03/15 01:03:31;;;;;;;18.83;3.40;;;4.50;89.60;;;;;;5058752;28;20204;-87
2021/03/15 01:06:05;;;;;;;14.23;3.33;;;4.50;89.50;;;;;;5058690;28;20269;-87
2021/03/15 01:08:34;;;;;;;11.87;3.30;;;4.50;89.30;;;;;;5076419;28;20271;-88
2021/03/15 01:11:05;;;;;;;15.50;2.80;;;4.50;89.50;;;;;;5058493;28;20194;-87
2021/03/15 01:13:37;;;;;;;14.73;3.70;;;4.50;89.60;;;;;;5058618;28;20584;-87
2021/03/15 01:16:11;;;;;;;13.40;2.97;;;4.50;89.80;;;;;;5058826;28;20175;-87
2021/03/15 01:18:37;;;;;;;14.37;4.07;;;4.50;89.90;;;;;;5058876;28;20184;-87
2021/03/15 01:21:11;;;;;;;20.30;4.17;;;4.50;90.10;;;;;;5058412;28;20202;-87
2021/03/15 01:23:46;;;;;;;16.10;4.27;;;4.50;90.00;;;;;;5076342;28;20175;-88
2021/03/15 01:26:20;;;;;;;25.90;5.13;;;4.50;90.10;;;;;;5076757;28;20174;-87
2021/03/15 01:28:51;;;;;;;17.83;4.70;;;4.50;90.40;;;;;;5058448;28;20202;-87
2021/03/15 01:31:24;;;;;;;17.47;4.17;;;4.50;90.60;;;;;;5076017;28;20254;-89
2021/03/15 01:33:56;;;;;;;20.27;3.67;;;4.50;90.80;;;;;;5058073;28;20170;-90
2021/03/15 01:36:34;;;;;;;19.27;5.03;;;4.60;90.50;;;;;;5076029;28;20162;-86
2021/03/15 01:39:00;;;;;;;18.83;4.83;;;4.50;90.60;;;;;;5057958;28;20207;-86
2021/03/15 01:41:29;;;;;;;18.97;4.30;;;4.50;90.80;;;;;;5057879;28;20191;-87
2021/03/15 01:43:58;;;;;;;19.10;4.00;;;4.50;90.70;;;;;;5058002;28;20639;-86
2021/03/15 01:46:31;;;;;;;20.73;4.53;;;4.50;90.60;;;;;;5075790;28;20185;-86
2021/03/15 01:49:06;;;;;;;21.63;4.30;;;4.50;90.60;;;;;;5075726;28;20254;-86
2021/03/15 01:51:34;;;;;;;19.23;4.50;;;4.50;90.60;;;;;;5075945;28;20205;-87
2021/03/15 01:54:08;;;;;;;20.50;4.77;;;4.50;90.60;;;;;;5057782;28;20561;-86
2021/03/15 01:56:43;;;;;;;24.87;4.47;;;4.50;90.60;;;;;;5057902;28;20184;-86
2021/03/15 01:59:15;;;;;;;34.23;6.07;;;4.50;90.80;;;;;;5057797;28;20178;-86
2021/03/15 02:01:48;;;;;;;17.77;4.53;;;4.50;90.60;;;;;;5057573;28;20204;-86
2021/03/15 02:04:17;;;;;;;19.60;4.57;;;4.40;90.70;;;;;;5058093;28;20182;-86
2021/03/15 02:06:54;;;;;;;19.87;5.37;;;4.40;90.70;;;;;;5057465;28;20182;-86
2021/03/15 02:09:27;;;;;;;22.20;5.70;;;4.40;90.60;;;;;;5057136;28;20201;-85
2021/03/15 02:12:11;;;;;;;17.07;5.13;;;4.40;90.50;;;;;;5074704;28;20183;-86
2021/03/15 02:15:33;;;;;;;16.67;4.17;;;4.50;90.70;;;;;;5075447;28;20171;-85
2021/03/15 02:18:21;;;;;;;22.73;5.13;;;4.40;90.70;;;;;;4958540;28;20186;-85
2021/03/15 02:21:14;;;;;;;27.17;5.27;;;4.40;90.60;;;;;;4958551;28;20188;-85
2021/03/15 02:24:16;;;;;;;22.17;6.40;;;4.40;90.50;;;;;;5039289;28;20186;-85
2021/03/15 02:27:05;;;;;;;23.67;6.40;;;4.40;90.60;;;;;;5057185;28;20642;-85
2021/03/15 02:29:50;;;;;;;25.47;5.77;;;4.40;90.70;;;;;;5057152;28;20224;-85
2021/03/15 02:32:54;;;;;;;24.53;6.93;;;4.40;90.70;;;;;;5057138;28;20198;-85
2021/03/15 02:35:27;;;;;;;22.83;4.07;;;4.50;90.80;;;;;;5074789;28;20178;-84
2021/03/15 02:38:04;;;;;;;26.00;5.67;;;4.40;90.60;;;;;;5074880;28;20593;-85
2021/03/15 02:40:46;;;;;;;32.57;6.37;;;4.40;90.60;;;;;;5056759;28;20173;-85
2021/03/15 02:43:22;;;;;;;14.33;4.07;;;4.40;90.70;;;;;;5056983;28;20514;-85
2021/03/15 02:46:00;;;;;;;22.00;5.23;;;4.40;90.90;;;;;;5056675;28;20205;-85
2021/03/15 02:48:35;;;;;;;27.20;5.33;;;4.30;91.00;;;;;;5074563;28;20205;-85
2021/03/15 02:51:04;;;;;;;20.77;4.30;;;4.40;91.00;;;;;;5056619;28;20668;-85
2021/03/15 02:53:31;;;;;;;17.90;5.50;;;4.40;91.10;;;;;;5074598;28;20160;-85
2021/03/15 02:56:12;;;;;;;23.13;5.63;;;4.40;91.10;;;;;;5056624;28;20525;-85
2021/03/15 02:58:46;;;;;;;24.67;4.47;;;4.40;91.20;;;;;;5056998;28;20171;-85
2021/03/15 03:01:17;;;;;;;24.70;5.77;;;4.40;91.10;;;;;;5056451;28;20204;-85
2021/03/15 03:03:44;;;;;;;15.17;4.77;;;4.40;91.10;;;;;;5056535;28;20170;-85
2021/03/15 03:06:16;;;;;;;13.87;4.67;;;4.40;91.10;;;;;;5074280;28;20172;-85
2021/03/15 03:08:49;;;;;;;16.33;5.07;;;4.40;91.00;;;;;;5056181;28;20210;-85
2021/03/15 03:11:24;;;;;;;21.40;6.37;;;4.40;91.20;;;;;;5056349;28;20608;-85
2021/03/15 03:13:58;;;;;;;23.67;7.07;;;4.50;91.20;;;;;;5056191;28;20715;-85
2021/03/15 03:16:31;;;;;;;23.93;4.70;;;4.50;91.10;;;;;;5056655;28;20600;-85
2021/03/15 03:19:02;;;;;;;27.17;7.27;;;4.50;91.10;;;;;;5056202;28;20177;-85
2021/03/15 03:21:34;;;;;;;25.03;7.07;;;4.50;91.00;;;;;;5055743;28;20201;-85
2021/03/15 03:24:10;;;;;;;28.97;6.83;;;4.60;90.90;;;;;;5055935;28;20177;-85
2021/03/15 03:26:44;;;;;;;25.30;7.23;;;4.60;91.00;;;;;;5074223;28;20518;-85
2021/03/15 03:29:24;;;;;;;21.50;6.70;;;4.50;91.00;;;;;;5055874;28;20234;-85
2021/03/15 03:31:57;;;;;;;31.77;7.47;;;4.50;91.10;;;;;;5055741;28;20226;-85
2021/03/15 03:34:29;;;;;;;23.23;7.17;;;4.50;91.10;;;;;;5056362;28;20173;-85
2021/03/15 03:36:59;;;;;;;25.73;7.43;;;4.50;91.00;;;;;;5056280;28;20269;-85
2021/03/15 03:39:34;;;;;;;22.40;6.77;;;4.50;91.10;;;;;;5073540;28;20227;-85
2021/03/15 03:42:07;;;;;;;22.93;5.60;;;4.50;90.90;;;;;;5055831;28;20202;-85
2021/03/15 03:44:40;;;;;;;19.13;6.53;;;4.40;91.10;;;;;;5073592;28;20174;-85
2021/03/15 03:47:13;;;;;;;19.23;5.83;;;4.40;91.10;;;;;;5073693;28;20161;-85
2021/03/15 03:49:47;;;;;;;20.13;5.93;;;4.30;91.30;;;;;;5073760;28;20198;-85
2021/03/15 03:52:21;;;;;;;25.83;6.80;;;4.30;91.40;;;;;;5055412;28;20205;-85
2021/03/15 03:54:57;;;;;;;22.53;5.70;;;4.30;91.40;;;;;;5055834;28;20174;-85
2021/03/15 03:57:31;;;;;;;11.50;3.50;;;4.30;91.30;;;;;;5055737;28;20167;-85
2021/03/15 04:00:09;;;;;;;17.37;5.30;;;4.30;91.20;;;;;;5055520;28;20304;-85
2021/03/15 04:03:04;;;;;;;9.73;4.13;;;4.30;91.20;;;;;;5055837;28;20193;-85
2021/03/15 04:05:38;;;;;;;10.40;3.50;;;4.30;91.20;;;;;;5042699;28;20186;-85
2021/03/15 04:08:15;;;;;;;16.20;4.70;;;4.30;91.30;;;;;;5055270;28;20237;-85
2021/03/15 04:10:47;;;;;;;11.97;5.03;;;4.30;91.50;;;;;;5055456;28;20190;-86
2021/03/15 04:13:24;;;;;;;15.03;5.97;;;4.30;91.30;;;;;;5073181;28;20536;-85
2021/03/15 04:15:58;;;;;;;16.03;5.70;;;4.20;91.50;;;;;;5073361;28;20178;-85
2021/03/15 04:18:36;;;;;;;12.20;5.00;;;4.20;91.50;;;;;;5055263;28;20182;-85
2021/03/15 04:21:10;;;;;;;13.17;4.77;;;4.20;91.40;;;;;;5055469;28;20202;-85
2021/03/15 04:23:47;;;;;;;13.20;3.60;;;4.20;91.30;;;;;;5055102;28;20272;-85
2021/03/15 04:26:18;;;;;;;10.93;4.87;;;4.30;91.30;;;;;;5073147;28;20645;-85
2021/03/15 04:28:52;;;;;;;15.33;5.93;;;4.30;91.30;;;;;;5055158;28;20606;-85
2021/03/15 04:31:24;;;;;;;15.50;5.10;;;4.20;91.30;;;;;;5073006;28;20251;-85
2021/03/15 04:33:53;;;;;;;10.47;4.97;;;4.20;91.30;;;;;;5074611;28;20171;-85
2021/03/15 04:36:26;;;;;;;14.73;5.20;;;4.20;91.20;;;;;;5059251;28;20557;-85
2021/03/15 04:39:05;;;;;;;11.17;4.70;;;4.20;91.20;;;;;;5059108;28;20185;-85
2021/03/15 04:41:39;;;;;;;9.30;4.63;;;4.20;91.30;;;;;;5077003;28;20191;-85
2021/03/15 04:44:11;;;;;;;7.83;4.60;;;4.20;91.30;;;;;;5077031;28;20246;-85
2021/03/15 04:46:48;;;;;;;15.90;5.33;;;4.10;91.40;;;;;;5059064;28;20175;-85
2021/03/15 04:49:21;;;;;;;13.80;4.70;;;4.10;91.40;;;;;;5058903;28;20237;-85
2021/03/15 04:51:54;;;;;;;13.40;5.23;;;4.00;91.40;;;;;;5059213;28;20292;-85
2021/03/15 04:54:29;;;;;;;15.53;5.10;;;4.00;91.50;;;;;;5076847;28;20170;-85
2021/03/15 04:57:00;;;;;;;7.60;4.33;;;4.10;91.50;;;;;;5076859;28;20188;-85
2021/03/15 04:59:34;;;;;;;10.20;6.13;;;4.00;91.60;;;;;;5076732;28;20177;-85
2021/03/15 05:02:08;;;;;;;11.13;5.03;;;4.00;91.60;;;;;;5076608;28;20195;-85
2021/03/15 05:04:43;;;;;;;8.47;4.53;;;4.10;91.50;;;;;;5058885;28;20186;-85
2021/03/15 05:07:10;;;;;;;12.43;5.60;;;4.20;91.50;;;;;;5058662;28;20177;-85
2021/03/15 05:09:44;;;;;;;12.93;6.17;;;4.30;91.40;;;;;;5058647;28;20205;-85
2021/03/15 05:12:17;;;;;;;8.97;5.13;;;4.30;91.20;;;;;;5076320;28;20193;-85
2021/03/15 05:14:53;;;;;;;14.67;6.60;;;4.30;91.40;;;;;;5058728;28;20545;-85
2021/03/15 05:17:24;;;;;;;13.30;6.60;;;4.30;91.30;;;;;;5058517;28;20209;-85
2021/03/15 05:20:01;;;;;;;11.80;5.43;;;4.30;91.20;;;;;;5076307;28;20219;-85
2021/03/15 05:22:34;;;;;;;12.70;5.70;;;4.30;91.20;;;;;;5058628;28;20199;-85
2021/03/15 05:25:08;;;;;;;14.13;5.83;;;4.30;91.10;;;;;;5076272;28;20173;-85
2021/03/15 05:27:40;;;;;;;13.37;6.90;;;4.30;91.30;;;;;;5076332;28;20639;-85
2021/03/15 05:30:15;;;;;;;12.53;5.80;;;4.30;91.20;;;;;;5058207;28;20198;-85
2021/03/15 05:32:49;;;;;;;25.90;8.77;;;4.30;90.90;;;;;;5058039;28;20198;-85
2021/03/15 05:35:21;;;;;;;19.63;7.10;;;4.30;91.00;;;;;;5058177;28;20185;-85
2021/03/15 05:37:50;;;;;;;20.57;6.70;;;4.30;91.10;;;;;;5058037;28;20171;-85
2021/03/15 05:40:24;;;;;;;17.07;6.50;;;4.20;91.10;;;;;;5058112;28;20180;-85
2021/03/15 05:43:31;;;;;;;14.47;5.93;;;4.20;91.40;;;;;;5075839;28;20193;-85
2021/03/15 05:46:24;;;;;;;16.27;6.23;;;4.30;91.20;;;;;;5075779;28;20213;-85
2021/03/15 05:49:17;;;;;;;16.87;5.93;;;4.30;91.20;;;;;;5057840;28;20198;-85
2021/03/15 05:52:18;;;;;;;11.87;6.47;;;4.40;91.20;;;;;;5075555;28;20202;-85
2021/03/15 05:55:12;;;;;;;17.50;6.93;;;4.40;91.20;;;;;;5075730;28;20153;-85
2021/03/15 05:58:04;;;;;;;29.53;8.83;;;4.40;91.20;;;;;;5057905;28;20200;-87
2021/03/15 06:00:53;;;;;;;19.07;7.50;;;4.40;91.20;;;;;;5057805;28;20176;-88
2021/03/15 06:04:05;;;;;;;19.43;8.00;;;4.50;91.10;;;;;;5057899;28;20175;-88
2021/03/15 06:06:42;;;;;;;23.03;8.70;;;4.50;91.20;;;;;;5075480;28;20181;-87
2021/03/15 06:09:23;;;;;;;20.73;8.20;;;4.50;91.30;;;;;;5057696;28;20204;-87
2021/03/15 06:12:01;;;;;;;21.50;8.33;;;4.50;91.40;;;;;;5057277;28;20671;-88
2021/03/15 06:14:34;;;;;;;23.80;8.50;;;4.60;91.40;;;;;;5057868;28;20513;-88
2021/03/15 06:17:09;;;;;;;19.17;8.77;;;4.60;91.60;;;;;;5057499;28;20171;-88
2021/03/15 06:19:36;;;;;;;17.00;7.57;;;4.60;91.80;;;;;;5057287;28;20208;-88
2021/03/15 06:22:12;;;;;;;18.70;8.50;;;4.50;92.00;;;;;;5075028;28;20568;-87
2021/03/15 06:24:48;;;;;;;21.57;8.57;;;4.50;92.10;;;;;;5057460;28;20187;-87
2021/03/15 06:27:18;;;;;;;19.00;6.57;;;4.60;92.20;;;;;;5057679;28;20238;-87
2021/03/15 06:29:51;;;;;;;22.17;7.07;;;4.60;92.10;;;;;;5056896;28;20210;-87
2021/03/15 06:32:27;;;;;;;22.07;7.77;;;4.60;92.10;;;;;;5075076;28;20219;-87
2021/03/15 06:34:55;;;;;;;24.23;7.57;;;4.60;92.30;;;;;;5074893;28;20174;-88
2021/03/15 06:37:24;;;;;;;20.07;7.07;;;4.60;92.40;;;;;;5074824;28;20178;-88
2021/03/15 06:40:01;;;;;;;14.93;6.90;;;4.60;92.40;;;;;;5075144;28;20688;-88
2021/03/15 06:42:36;;;;;;;24.33;8.93;;;4.70;92.20;;;;;;5074685;28;20658;-88
2021/03/15 06:45:06;;;;;;;11.20;4.97;;;4.70;92.20;;;;;;5074691;28;20178;-88
2021/03/15 06:47:45;;;;;;;19.43;7.37;;;4.80;92.30;;;;;;5056720;28;20178;-88
2021/03/15 06:50:14;;;;;;;13.77;5.60;;;4.80;92.50;;;;;;5074502;28;20277;-87
2021/03/15 06:52:55;;;;;;;21.73;6.97;;;4.80;92.30;;;;;;5056662;28;20213;-88
2021/03/15 06:55:44;;;;;;;19.20;5.63;;;4.90;92.40;;;;;;5056649;28;20185;-88
2021/03/15 06:58:28;;;;;;;6.40;3.03;;;4.90;92.30;;;;;;5056252;28;20586;-87
2021/03/15 07:01:24;;;;;;;17.17;5.87;;;4.90;92.10;;;;;;5074303;28;20635;-88
2021/03/15 07:04:12;;;;;;;22.73;6.87;;;4.90;92.10;;;;;;5074341;28;20178;-87
2021/03/15 07:06:54;;;;;;;17.07;4.77;;;4.90;92.10;;;;;;5074257;28;20170;-87
2021/03/15 07:09:23;;;;;;;17.87;5.13;;;4.80;92.10;;;;;;5056242;28;20207;-87
2021/03/15 07:12:02;;;;;;;21.07;4.80;;;4.80;92.20;;;;;;5056953;28;20522;-87
2021/03/15 07:14:34;;;;;;;22.30;5.63;;;4.80;92.30;;;;;;5074103;28;20257;-87
2021/03/15 07:17:09;;;;;;;27.07;6.33;;;4.80;92.20;;;;;;5056365;28;20547;-87
2021/03/15 07:19:42;;;;;;;19.90;4.80;;;4.80;92.40;;;;;;5056055;28;20246;-87
2021/03/15 07:22:27;;;;;;;8.50;3.70;;;4.80;92.50;;;;;;5073985;28;20200;-87
2021/03/15 07:25:11;;;;;;;8.20;3.63;;;4.80;92.70;;;;;;5055991;28;20185;-88
2021/03/15 07:27:44;;;;;;;10.87;4.07;;;4.80;92.80;;;;;;5055979;28;20179;-87
2021/03/15 07:30:34;;;;;;;11.27;3.53;;;4.80;93.00;;;;;;5055720;28;20203;-87
2021/03/15 07:33:14;;;;;;;11.60;4.10;;;4.80;93.20;;;;;;5073736;28;20675;-87
2021/03/15 07:35:40;;;;;;;15.47;4.87;;;4.80;93.30;;;;;;5073708;28;20262;-87
2021/03/15 07:38:14;;;;;;;14.17;5.03;;;4.80;93.30;;;;;;5055668;28;20175;-87
2021/03/15 07:40:47;;;;;;;11.63;5.10;;;4.80;93.40;;;;;;5056442;28;20160;-87
2021/03/15 07:43:23;;;;;;;17.77;4.87;;;4.80;93.50;;;;;;5073635;28;20195;-87
2021/03/15 07:45:54;;;;;;;19.77;5.63;;;4.90;93.60;;;;;;5055674;28;20180;-88
2021/03/15 07:48:32;;;;;;;16.60;5.13;;;5.00;93.80;;;;;;5073740;28;20223;-87
2021/03/15 07:51:04;;;;;;;18.90;5.23;;;5.00;93.50;;;;;;5073415;28;20206;-87
2021/03/15 07:56:09;;;;;;;23.17;5.53;;;5.00;93.50;;;;;;5032513;28;20570;-84
2021/03/15 07:58:44;;;;;;;19.70;4.70;;;5.10;93.50;;;;;;5033379;28;20176;-84
2021/03/15 08:01:18;;;;;;;23.77;5.70;;;5.20;93.30;;;;;;5032232;28;20176;-84
2021/03/15 08:03:48;;;;;;;21.23;4.60;;;5.30;93.30;;;;;;5035086;28;20203;-84
2021/03/15 08:06:20;;;;;;;21.23;4.50;;;5.40;93.30;;;;;;5053289;28;20184;-84
2021/03/15 08:08:53;;;;;;;16.83;3.80;;;5.40;93.10;;;;;;5052267;28;20206;-84
2021/03/15 08:11:28;;;;;;;19.00;3.23;;;5.40;92.80;;;;;;5053691;28;20164;-84
2021/03/15 08:14:01;;;;;;;21.60;3.90;;;5.50;92.90;;;;;;5053228;28;20215;-84
2021/03/15 08:16:31;;;;;;;22.63;3.77;;;5.50;92.30;;;;;;5053231;28;20251;-84
2021/03/15 08:19:08;;;;;;;17.73;3.27;;;5.70;92.80;;;;;;5051848;28;20271;-84
2021/03/15 08:21:37;;;;;;;21.27;4.20;;;5.80;92.50;;;;;;5053314;28;20593;-84
2021/03/15 08:24:13;;;;;;;31.63;4.53;;;5.80;92.60;;;;;;5052973;28;20188;-85
2021/03/15 08:26:41;;;;;;;27.50;4.53;;;5.70;92.60;;;;;;5051876;28;20271;-84
2021/03/15 08:29:17;;;;;;;19.57;3.50;;;5.70;92.40;;;;;;5051731;28;20211;-84
2021/03/15 08:31:53;;;;;;;22.23;3.40;;;5.70;92.10;;;;;;5053166;28;20246;-85
2021/03/15 08:34:27;;;;;;;26.37;3.83;;;5.70;92.10;;;;;;5052982;28;20191;-84
2021/03/15 08:36:58;;;;;;;19.43;3.30;;;5.80;91.80;;;;;;5051800;28;20263;-84
2021/03/15 08:39:29;;;;;;;16.90;5.27;;;5.80;91.40;;;;;;5053014;28;20161;-84
2021/03/15 08:42:17;;;;;;;21.50;4.47;;;5.80;91.60;;;;;;5053205;28;20169;-84
2021/03/15 08:44:46;;;;;;;16.77;3.03;;;6.00;91.60;;;;;;5051563;28;20201;-84
2021/03/15 08:47:37;;;;;;;23.50;4.23;;;6.00;91.30;;;;;;5053084;28;20176;-84
2021/03/15 08:50:42;;;;;;;16.90;3.27;;;6.10;91.10;;;;;;5051350;28;20613;-84
2021/03/15 08:53:12;;;;;;;21.13;3.37;;;6.10;90.40;;;;;;5051433;28;20644;-84
2021/03/15 08:55:56;;;;;;;18.77;3.77;;;6.10;90.40;;;;;;5052636;28;20688;-84
2021/03/15 08:58:38;;;;;;;16.30;3.20;;;6.10;90.20;;;;;;5051481;28;20652;-84
2021/03/15 09:01:11;;;;;;;16.60;3.17;;;6.20;90.30;;;;;;5051547;28;20176;-84
2021/03/15 09:03:57;;;;;;;25.67;3.57;;;6.30;90.20;;;;;;5052697;28;20182;-84
2021/03/15 09:06:38;;;;;;;23.30;3.90;;;6.30;90.20;;;;;;5052658;28;20172;-84
2021/03/15 09:09:25;;;;;;;24.23;3.57;;;6.30;89.90;;;;;;5051554;28;20615;-84
2021/03/15 09:11:57;;;;;;;23.20;3.50;;;6.30;89.60;;;;;;5051761;28;20181;-84
2021/03/15 09:14:32;;;;;;;19.17;3.60;;;6.30;89.40;;;;;;5052600;28;20271;-84
2021/03/15 09:17:19;;;;;;;26.33;4.13;;;6.30;89.70;;;;;;5051301;28;20172;-84
2021/03/15 09:19:48;;;;;;;20.93;3.23;;;6.30;88.90;;;;;;5052158;28;20189;-84
2021/03/15 09:22:34;;;;;;;24.33;4.17;;;6.20;89.30;;;;;;5055009;28;20653;-84
2021/03/15 09:25:31;;;;;;;18.67;3.57;;;6.30;89.50;;;;;;5054905;28;20250;-84
2021/03/15 09:28:02;;;;;;;11.40;2.83;;;6.30;89.40;;;;;;5056036;28;20191;-84
2021/03/15 09:30:35;;;;;;;21.33;3.63;;;6.30;88.80;;;;;;5056050;28;20176;-84
2021/03/15 09:33:13;;;;;;;28.17;4.73;;;6.30;88.90;;;;;;5056356;28;20570;-83
2021/03/15 09:35:44;;;;;;;23.87;4.67;;;6.30;88.60;;;;;;5055974;28;20193;-84
2021/03/15 09:38:15;;;;;;;29.30;3.80;;;6.30;88.40;;;;;;5054667;28;20543;-84
2021/03/15 09:40:49;;;;;;;37.63;6.47;;;6.40;88.50;;;;;;5055931;28;20182;-83
2021/03/15 09:43:25;;;;;;;24.57;4.23;;;6.40;88.10;;;;;;5054575;28;20194;-84
2021/03/15 09:46:07;;;;;;;22.33;3.97;;;6.40;87.90;;;;;;5054532;28;20168;-84
2021/03/15 09:48:40;;;;;;;27.80;5.13;;;6.60;87.80;;;;;;5055749;28;20633;-84
2021/03/15 09:51:11;;;;;;;26.27;4.43;;;6.60;87.60;;;;;;5056019;28;20196;-85
2021/03/15 09:53:46;;;;;;;31.43;4.87;;;6.60;88.00;;;;;;5055711;28;20151;-83
2021/03/15 09:56:18;;;;;;;26.67;5.73;;;6.60;87.80;;;;;;5055683;28;20192;-84
2021/03/15 09:58:48;;;;;;;17.80;3.20;;;6.50;88.10;;;;;;5055625;28;20157;-83
2021/03/15 10:01:18;;;;;;;21.60;3.97;;;6.50;87.30;;;;;;5054672;28;20178;-84
2021/03/15 10:04:00;;;;;;;27.07;4.87;;;6.50;88.40;;;;;;5055539;28;20192;-84
2021/03/15 10:06:33;;;;;;;32.17;6.53;;;6.60;87.60;;;;;;5054217;28;20162;-85
2021/03/15 10:09:07;;;;;;;43.73;6.97;;;6.70;87.50;;;;;;5054503;28;20200;-84
2021/03/15 10:11:43;;;;;;;19.67;4.37;;;6.80;87.70;;;;;;5055886;28;20171;-85
2021/03/15 10:14:17;;;;;;;23.83;5.63;;;6.90;86.30;;;;;;5056016;28;20690;-84
2021/03/15 10:16:56;;;;;;;30.20;5.93;;;7.00;87.20;;;;;;5056095;28;20170;-85
2021/03/15 10:19:31;;;;;;;25.00;4.13;;;7.20;87.70;;;;;;5056459;28;20175;-84
2021/03/15 10:22:15;;;;;;;28.40;5.07;;;7.20;85.90;;;;;;5057118;28;20162;-84
2021/03/15 10:24:52;;;;;;;26.43;4.90;;;7.10;85.80;;;;;;5055076;28;20197;-84
2021/03/15 10:27:27;;;;;;;18.47;3.70;;;7.00;86.00;;;;;;5054335;28;20178;-84
2021/03/15 10:30:09;;;;;;;39.07;4.87;;;6.90;84.70;;;;;;5055229;28;20605;-85
2021/03/15 10:32:40;;;;;;;29.90;4.93;;;7.00;86.00;;;;;;5052658;28;20220;-85
2021/03/15 10:35:11;;;;;;;33.57;4.80;;;7.00;85.90;;;;;;5054736;28;20202;-85
2021/03/15 10:37:42;;;;;;;21.73;4.60;;;7.00;85.20;;;;;;5053487;28;20206;-84
2021/03/15 10:40:17;;;;;;;28.33;5.47;;;7.00;84.50;;;;;;5053562;28;20218;-85
2021/03/15 10:42:54;;;;;;;32.33;5.17;;;7.10;85.20;;;;;;5054765;28;20153;-84
2021/03/15 10:45:32;;;;;;;20.07;4.07;;;7.10;85.50;;;;;;5054698;28;20247;-84
2021/03/15 10:48:14;;;;;;;34.90;5.27;;;7.20;85.40;;;;;;5053246;28;20170;-85
2021/03/15 10:50:47;;;;;;;31.67;5.07;;;7.10;84.90;;;;;;5054569;28;20249;-85
2021/03/15 10:53:15;;;;;;;34.53;5.53;;;7.00;85.20;;;;;;5054469;28;20178;-85
2021/03/15 10:55:41;;;;;;;26.37;3.97;;;6.90;85.30;;;;;;5054266;28;20217;-85
2021/03/15 10:58:18;;;;;;;19.77;3.27;;;6.90;85.50;;;;;;5053123;28;20177;-84
2021/03/15 11:01:02;;;;;;;21.20;3.50;;;6.70;85.10;;;;;;5054447;28;20177;-85
2021/03/15 11:03:34;;;;;;;21.57;4.47;;;6.50;85.40;;;;;;5054289;28;20184;-84
2021/03/15 11:06:08;;;;;;;20.33;3.30;;;6.50;85.40;;;;;;5054363;28;20266;-85
2021/03/15 11:08:41;;;;;;;17.90;3.47;;;6.80;86.40;;;;;;5054422;28;20278;-85
2021/03/15 11:11:27;;;;;;;28.77;4.20;;;6.80;86.40;;;;;;5052895;28;20264;-85
2021/03/15 11:13:59;;;;;;;24.83;5.13;;;6.70;86.90;;;;;;5054043;28;20212;-85
2021/03/15 11:16:33;;;;;;;16.50;4.13;;;6.70;87.00;;;;;;5052747;28;20649;-85
2021/03/15 11:19:05;;;;;;;20.33;3.07;;;6.60;86.80;;;;;;5054012;28;20697;-85
2021/03/15 11:21:36;;;;;;;16.47;3.63;;;6.30;87.70;;;;;;5054012;28;20561;-85
2021/03/15 11:24:04;;;;;;;15.80;3.50;;;6.30;88.00;;;;;;5052672;28;20193;-85
2021/03/15 11:26:48;;;;;;;12.87;2.07;;;6.10;87.50;;;;;;5053861;28;20177;-86
2021/03/15 11:29:20;;;;;;;18.80;3.17;;;5.80;87.60;;;;;;5052561;28;20200;-85
2021/03/15 11:31:53;;;;;;;15.77;3.53;;;5.70;88.50;;;;;;5054097;28;20200;-85
2021/03/15 11:34:27;;;;;;;18.97;2.97;;;5.80;88.60;;;;;;5053729;28;20207;-85
2021/03/15 11:36:53;;;;;;;11.73;2.20;;;5.90;88.70;;;;;;5052448;28;20172;-85
2021/03/15 11:39:29;;;;;;;15.87;3.07;;;6.10;89.50;;;;;;5052444;28;20198;-85
2021/03/15 11:42:04;;;;;;;15.73;2.53;;;6.40;89.40;;;;;;5053456;28;20252;-85
2021/03/15 11:44:35;;;;;;;20.47;2.80;;;6.40;88.60;;;;;;5053529;28;20200;-85
2021/03/15 11:47:05;;;;;;;17.50;3.07;;;6.40;88.00;;;;;;5053524;28;20186;-85
2021/03/15 11:49:37;;;;;;;9.77;2.37;;;6.40;87.80;;;;;;5053509;28;20204;-85
2021/03/15 11:52:11;;;;;;;6.37;1.60;;;6.50;86.50;;;;;;5052248;28;20168;-84
2021/03/15 11:54:47;;;;;;;2.97;1.00;;;6.50;85.70;;;;;;5053250;28;20206;-85
2021/03/15 11:57:19;;;;;;;2.47;1.30;;;6.50;84.70;;;;;;5052218;28;20168;-85
2021/03/15 11:59:52;;;;;;;3.67;1.50;;;6.80;84.70;;;;;;5052092;28;20268;-84
2021/03/15 12:02:24;;;;;;;4.20;1.10;;;7.20;83.50;;;;;;5053304;28;20274;-85
2021/03/15 12:04:50;;;;;;;5.70;1.43;;;7.20;83.90;;;;;;5053582;28;20245;-86
2021/03/15 12:07:17;;;;;;;9.80;1.37;;;7.20;83.10;;;;;;5053892;28;20181;-85
2021/03/15 12:09:45;;;;;;;6.47;2.03;;;6.90;82.60;;;;;;5052185;28;20199;-86
2021/03/15 12:12:11;;;;;;;5.57;1.50;;;6.70;82.80;;;;;;5052311;28;20268;-86
2021/03/15 12:14:40;;;;;;;8.53;1.60;;;6.70;83.00;;;;;;5053453;28;20730;-85
2021/03/15 12:17:06;;;;;;;8.23;1.50;;;6.70;82.60;;;;;;5053788;28;20175;-85
2021/03/15 12:19:34;;;;;;;8.20;1.70;;;6.50;81.70;;;;;;5051995;28;20197;-85
2021/03/15 12:22:01;;;;;;;7.73;1.87;;;6.40;82.20;;;;;;5052006;28;20327;-85
2021/03/15 12:24:28;;;;;;;3.03;1.50;;;6.40;82.10;;;;;;5051889;28;20194;-86
2021/03/15 12:26:54;;;;;;;9.57;1.90;;;6.40;82.20;;;;;;5051819;28;20619;-85
2021/03/15 12:29:20;;;;;;;5.67;1.77;;;6.30;82.00;;;;;;5053358;28;20275;-85
2021/03/15 12:31:46;;;;;;;6.80;1.63;;;6.30;81.80;;;;;;5052029;28;20176;-86
2021/03/15 12:34:11;;;;;;;6.60;1.50;;;6.30;81.70;;;;;;5053319;28;20591;-86
2021/03/15 12:36:37;;;;;;;3.23;1.37;;;6.30;81.80;;;;;;5051790;28;20641;-85
2021/03/15 12:39:04;;;;;;;6.27;1.60;;;6.30;81.90;;;;;;5053045;28;20663;-85
2021/03/15 12:41:29;;;;;;;10.10;2.07;;;6.30;81.30;;;;;;5053068;28;20178;-85
2021/03/15 12:43:55;;;;;;;6.10;1.83;;;6.20;81.70;;;;;;5051659;28;20582;-85
2021/03/15 12:46:21;;;;;;;5.67;1.70;;;6.20;81.80;;;;;;5053239;28;20170;-85
2021/03/15 12:48:48;;;;;;;8.27;1.60;;;6.20;83.30;;;;;;5052969;28;20572;-85
2021/03/15 12:51:14;;;;;;;2.60;1.53;;;6.10;84.70;;;;;;5052967;28;20178;-85
2021/03/15 12:53:44;;;;;;;3.47;1.30;;;6.00;85.80;;;;;;5052730;28;20168;-85
2021/03/15 12:56:15;;;;;;;10.47;2.20;;;6.10;86.50;;;;;;5055430;28;20226;-85
2021/03/15 12:58:47;;;;;;;8.43;2.10;;;6.20;87.20;;;;;;5055634;28;20176;-85
2021/03/15 13:01:17;;;;;;;5.53;1.90;;;6.50;86.40;;;;;;5056150;28;20176;-85
2021/03/15 13:03:46;;;;;;;6.17;2.43;;;6.90;86.30;;;;;;5057109;28;20207;-86
2021/03/15 13:06:17;;;;;;;15.47;2.23;;;6.90;84.50;;;;;;5055412;28;20182;-84
2021/03/15 13:08:46;;;;;;;9.57;1.83;;;6.90;83.70;;;;;;5055810;28;20288;-85
2021/03/15 13:11:13;;;;;;;10.40;2.10;;;6.80;82.40;;;;;;5058012;28;20170;-87
2021/03/15 13:13:42;;;;;;;12.80;2.67;;;6.70;81.90;;;;;;5057140;28;20174;-85
2021/03/15 13:16:09;;;;;;;8.97;1.93;;;6.60;81.70;;;;;;5056509;28;20186;-83
2021/03/15 13:18:35;;;;;;;7.10;2.83;;;6.50;82.20;;;;;;5058070;28;20181;-84
2021/03/15 13:21:06;;;;;;;15.57;2.43;;;6.30;83.20;;;;;;5056937;28;20178;-84
2021/03/15 13:23:32;;;;;;;14.13;2.73;;;6.20;84.20;;;;;;5055047;28;20181;-85
2021/03/15 13:26:03;;;;;;;10.30;2.40;;;6.20;85.00;;;;;;5056324;28;20231;-85
2021/03/15 13:28:28;;;;;;;9.57;2.30;;;6.10;85.40;;;;;;5056277;28;20284;-85